sensor_id;sensor_type;location;lat;lon;timestamp;temperature;humidity
59572;DHT22;70118;45.638;11.714;2023-05-29T00:00:21;26.10;73.00
59572;DHT22;70118;45.638;11.714;2023-05-29T00:02:47;26.10;73.20
59572;DHT22;70118;45.638;11.714;2023-05-29T00:05:14;26.10;73.20
59572;DHT22;70118;45.638;11.714;2023-05-29T00:07:41;26.00;73.00
59572;DHT22;70118;45.638;11.714;2023-05-29T00:10:08;26.10;73.20
59572;DHT22;70118;45.638;11.714;2023-05-29T00:12:35;26.10;72.90
59572;DHT22;70118;45.638;11.714;2023-05-29T00:15:02;26.00;72.50
59572;DHT22;70118;45.638;11.714;2023-05-29T00:17:29;25.90;72.50
59572;DHT22;70118;45.638;11.714;2023-05-29T00:19:58;25.80;73.10
59572;DHT22;70118;45.638;11.714;2023-05-29T00:22:25;25.70;72.80
59572;DHT22;70118;45.638;11.714;2023-05-29T00:24:53;25.70;73.20
59572;DHT22;70118;45.638;11.714;2023-05-29T00:27:19;25.60;73.60
59572;DHT22;70118;45.638;11.714;2023-05-29T00:29:46;25.60;73.80
59572;DHT22;70118;45.638;11.714;2023-05-29T00:32:11;25.70;74.60
59572;DHT22;70118;45.638;11.714;2023-05-29T00:34:37;25.70;73.80
59572;DHT22;70118;45.638;11.714;2023-05-29T00:37:03;25.70;73.90
59572;DHT22;70118;45.638;11.714;2023-05-29T00:39:29;25.60;73.60
59572;DHT22;70118;45.638;11.714;2023-05-29T00:41:55;25.60;73.60
59572;DHT22;70118;45.638;11.714;2023-05-29T00:44:22;25.60;74.00
59572;DHT22;70118;45.638;11.714;2023-05-29T00:46:49;25.60;73.70
59572;DHT22;70118;45.638;11.714;2023-05-29T00:49:17;25.50;74.10
59572;DHT22;70118;45.638;11.714;2023-05-29T00:51:43;25.50;74.20
59572;DHT22;70118;45.638;11.714;2023-05-29T00:54:12;25.50;74.60
59572;DHT22;70118;45.638;11.714;2023-05-29T00:56:39;25.40;74.40
59572;DHT22;70118;45.638;11.714;2023-05-29T00:59:09;25.40;74.20
59572;DHT22;70118;45.638;11.714;2023-05-29T01:01:35;25.40;74.70
59572;DHT22;70118;45.638;11.714;2023-05-29T01:04:03;25.30;74.50
59572;DHT22;70118;45.638;11.714;2023-05-29T01:06:32;25.20;74.70
59572;DHT22;70118;45.638;11.714;2023-05-29T01:08:59;25.20;74.90
59572;DHT22;70118;45.638;11.714;2023-05-29T01:14:11;25.20;74.90
59572;DHT22;70118;45.638;11.714;2023-05-29T01:16:59;25.20;74.70
59572;DHT22;70118;45.638;11.714;2023-05-29T01:28:52;25.30;74.10
59572;DHT22;70118;45.638;11.714;2023-05-29T01:31:22;25.30;74.50
59572;DHT22;70118;45.638;11.714;2023-05-29T01:33:56;25.20;74.70
59572;DHT22;70118;45.638;11.714;2023-05-29T01:36:23;25.20;75.00
59572;DHT22;70118;45.638;11.714;2023-05-29T01:38:51;25.30;74.70
59572;DHT22;70118;45.638;11.714;2023-05-29T01:41:18;25.30;75.70
59572;DHT22;70118;45.638;11.714;2023-05-29T01:43:45;25.40;75.40
59572;DHT22;70118;45.638;11.714;2023-05-29T01:46:13;25.50;74.90
59572;DHT22;70118;45.638;11.714;2023-05-29T01:48:40;25.60;74.40
59572;DHT22;70118;45.638;11.714;2023-05-29T01:51:07;25.60;74.30
59572;DHT22;70118;45.638;11.714;2023-05-29T01:53:33;25.60;73.90
59572;DHT22;70118;45.638;11.714;2023-05-29T01:56:00;25.60;73.40
59572;DHT22;70118;45.638;11.714;2023-05-29T01:58:27;25.70;73.30
59572;DHT22;70118;45.638;11.714;2023-05-29T02:00:56;25.70;73.20
59572;DHT22;70118;45.638;11.714;2023-05-29T02:03:22;25.70;73.10
59572;DHT22;70118;45.638;11.714;2023-05-29T02:05:49;25.70;73.10
59572;DHT22;70118;45.638;11.714;2023-05-29T02:08:15;25.70;72.90
59572;DHT22;70118;45.638;11.714;2023-05-29T02:10:42;25.50;73.30
59572;DHT22;70118;45.638;11.714;2023-05-29T02:13:07;25.70;73.20
59572;DHT22;70118;45.638;11.714;2023-05-29T02:15:33;25.80;73.00
59572;DHT22;70118;45.638;11.714;2023-05-29T02:17:59;25.70;73.20
59572;DHT22;70118;45.638;11.714;2023-05-29T02:20:26;25.60;73.20
59572;DHT22;70118;45.638;11.714;2023-05-29T02:22:52;25.70;73.00
59572;DHT22;70118;45.638;11.714;2023-05-29T02:25:19;25.80;72.80
59572;DHT22;70118;45.638;11.714;2023-05-29T02:27:45;25.70;72.70
59572;DHT22;70118;45.638;11.714;2023-05-29T02:30:11;25.80;72.80
59572;DHT22;70118;45.638;11.714;2023-05-29T02:32:37;25.70;72.70
59572;DHT22;70118;45.638;11.714;2023-05-29T02:35:03;25.70;72.80
59572;DHT22;70118;45.638;11.714;2023-05-29T02:37:29;25.70;72.80
59572;DHT22;70118;45.638;11.714;2023-05-29T02:39:55;25.60;72.60
59572;DHT22;70118;45.638;11.714;2023-05-29T02:42:21;25.60;72.80
59572;DHT22;70118;45.638;11.714;2023-05-29T02:44:47;25.50;73.20
59572;DHT22;70118;45.638;11.714;2023-05-29T02:47:13;25.60;73.30
59572;DHT22;70118;45.638;11.714;2023-05-29T02:49:39;25.70;73.30
59572;DHT22;70118;45.638;11.714;2023-05-29T02:52:05;25.70;72.80
59572;DHT22;70118;45.638;11.714;2023-05-29T02:54:31;25.60;72.60
59572;DHT22;70118;45.638;11.714;2023-05-29T02:56:57;25.50;73.20
59572;DHT22;70118;45.638;11.714;2023-05-29T02:59:23;25.50;73.60
59572;DHT22;70118;45.638;11.714;2023-05-29T03:01:49;25.50;73.60
59572;DHT22;70118;45.638;11.714;2023-05-29T03:04:15;25.60;73.30
59572;DHT22;70118;45.638;11.714;2023-05-29T03:06:43;25.70;73.00
59572;DHT22;70118;45.638;11.714;2023-05-29T03:09:08;25.60;73.00
59572;DHT22;70118;45.638;11.714;2023-05-29T03:11:35;25.60;72.90
59572;DHT22;70118;45.638;11.714;2023-05-29T03:14:01;25.60;73.00
59572;DHT22;70118;45.638;11.714;2023-05-29T03:16:27;25.70;73.00
59572;DHT22;70118;45.638;11.714;2023-05-29T03:18:55;25.60;73.40
59572;DHT22;70118;45.638;11.714;2023-05-29T03:21:21;25.60;73.20
59572;DHT22;70118;45.638;11.714;2023-05-29T03:23:47;25.70;73.00
59572;DHT22;70118;45.638;11.714;2023-05-29T03:26:13;25.70;73.00
59572;DHT22;70118;45.638;11.714;2023-05-29T03:28:39;25.60;72.70
59572;DHT22;70118;45.638;11.714;2023-05-29T03:31:05;25.70;72.80
59572;DHT22;70118;45.638;11.714;2023-05-29T03:33:31;25.70;73.10
59572;DHT22;70118;45.638;11.714;2023-05-29T03:35:57;25.60;73.10
59572;DHT22;70118;45.638;11.714;2023-05-29T03:38:23;25.60;73.10
59572;DHT22;70118;45.638;11.714;2023-05-29T03:40:49;25.60;73.20
59572;DHT22;70118;45.638;11.714;2023-05-29T03:43:15;25.60;73.20
59572;DHT22;70118;45.638;11.714;2023-05-29T03:45:41;25.70;73.00
59572;DHT22;70118;45.638;11.714;2023-05-29T03:48:07;25.70;73.10
59572;DHT22;70118;45.638;11.714;2023-05-29T03:50:33;25.70;73.00
59572;DHT22;70118;45.638;11.714;2023-05-29T03:52:58;25.60;73.00
59572;DHT22;70118;45.638;11.714;2023-05-29T03:55:26;25.60;73.00
59572;DHT22;70118;45.638;11.714;2023-05-29T03:57:52;25.60;72.60
59572;DHT22;70118;45.638;11.714;2023-05-29T04:00:18;25.60;72.60
59572;DHT22;70118;45.638;11.714;2023-05-29T04:02:44;25.50;72.60
59572;DHT22;70118;45.638;11.714;2023-05-29T04:05:10;25.40;72.90
59572;DHT22;70118;45.638;11.714;2023-05-29T04:07:38;25.40;73.20
59572;DHT22;70118;45.638;11.714;2023-05-29T04:10:05;25.40;73.50
59572;DHT22;70118;45.638;11.714;2023-05-29T04:12:32;25.50;73.30
59572;DHT22;70118;45.638;11.714;2023-05-29T04:14:59;25.50;73.20
59572;DHT22;70118;45.638;11.714;2023-05-29T04:17:25;25.60;73.20
59572;DHT22;70118;45.638;11.714;2023-05-29T04:19:51;25.50;73.30
59572;DHT22;70118;45.638;11.714;2023-05-29T04:22:17;25.40;73.70
59572;DHT22;70118;45.638;11.714;2023-05-29T04:24:43;25.50;73.80
59572;DHT22;70118;45.638;11.714;2023-05-29T04:27:09;25.60;73.70
59572;DHT22;70118;45.638;11.714;2023-05-29T04:29:42;25.60;73.80
59572;DHT22;70118;45.638;11.714;2023-05-29T04:32:09;25.50;73.60
59572;DHT22;70118;45.638;11.714;2023-05-29T04:34:37;25.50;74.00
59572;DHT22;70118;45.638;11.714;2023-05-29T04:37:06;25.50;73.90
59572;DHT22;70118;45.638;11.714;2023-05-29T04:39:32;25.50;73.90
59572;DHT22;70118;45.638;11.714;2023-05-29T04:41:58;25.60;73.80
59572;DHT22;70118;45.638;11.714;2023-05-29T04:44:25;25.60;73.90
59572;DHT22;70118;45.638;11.714;2023-05-29T04:46:55;25.60;73.70
59572;DHT22;70118;45.638;11.714;2023-05-29T04:49:22;25.70;73.70
59572;DHT22;70118;45.638;11.714;2023-05-29T04:51:48;25.60;73.70
59572;DHT22;70118;45.638;11.714;2023-05-29T04:54:18;25.60;73.70
59572;DHT22;70118;45.638;11.714;2023-05-29T04:56:45;25.60;73.40
59572;DHT22;70118;45.638;11.714;2023-05-29T04:59:12;25.60;73.30
59572;DHT22;70118;45.638;11.714;2023-05-29T05:01:38;25.70;73.30
59572;DHT22;70118;45.638;11.714;2023-05-29T05:04:04;25.70;73.40
59572;DHT22;70118;45.638;11.714;2023-05-29T05:06:30;25.70;73.40
59572;DHT22;70118;45.638;11.714;2023-05-29T05:08:56;25.60;73.50
59572;DHT22;70118;45.638;11.714;2023-05-29T05:11:23;25.60;73.50
59572;DHT22;70118;45.638;11.714;2023-05-29T05:13:49;25.70;73.70
59572;DHT22;70118;45.638;11.714;2023-05-29T05:16:15;25.70;73.90
59572;DHT22;70118;45.638;11.714;2023-05-29T05:18:43;25.70;73.80
59572;DHT22;70118;45.638;11.714;2023-05-29T05:21:09;25.70;73.80
59572;DHT22;70118;45.638;11.714;2023-05-29T05:23:36;25.70;73.80
59572;DHT22;70118;45.638;11.714;2023-05-29T05:26:02;25.70;73.80
59572;DHT22;70118;45.638;11.714;2023-05-29T05:28:28;25.70;73.80
59572;DHT22;70118;45.638;11.714;2023-05-29T05:30:54;25.70;73.70
59572;DHT22;70118;45.638;11.714;2023-05-29T05:33:20;25.70;73.90
59572;DHT22;70118;45.638;11.714;2023-05-29T05:35:46;25.80;73.90
59572;DHT22;70118;45.638;11.714;2023-05-29T05:38:11;25.70;73.90
59572;DHT22;70118;45.638;11.714;2023-05-29T05:40:37;25.70;73.80
59572;DHT22;70118;45.638;11.714;2023-05-29T05:43:03;25.70;73.90
59572;DHT22;70118;45.638;11.714;2023-05-29T05:45:29;25.80;73.70
59572;DHT22;70118;45.638;11.714;2023-05-29T05:47:57;25.80;73.70
59572;DHT22;70118;45.638;11.714;2023-05-29T05:50:23;25.70;73.60
59572;DHT22;70118;45.638;11.714;2023-05-29T05:52:50;25.80;73.70
59572;DHT22;70118;45.638;11.714;2023-05-29T05:55:16;25.80;73.80
59572;DHT22;70118;45.638;11.714;2023-05-29T05:57:41;25.90;73.70
59572;DHT22;70118;45.638;11.714;2023-05-29T06:00:08;25.70;73.80
59572;DHT22;70118;45.638;11.714;2023-05-29T06:02:39;25.80;73.90
59572;DHT22;70118;45.638;11.714;2023-05-29T06:05:10;25.90;73.90
59572;DHT22;70118;45.638;11.714;2023-05-29T06:07:37;25.80;74.10
59572;DHT22;70118;45.638;11.714;2023-05-29T06:10:04;25.80;74.10
59572;DHT22;70118;45.638;11.714;2023-05-29T06:12:30;25.90;74.10
59572;DHT22;70118;45.638;11.714;2023-05-29T06:14:56;25.90;74.10
59572;DHT22;70118;45.638;11.714;2023-05-29T06:17:22;25.80;74.20
59572;DHT22;70118;45.638;11.714;2023-05-29T06:19:49;25.90;74.20
59572;DHT22;70118;45.638;11.714;2023-05-29T06:22:15;25.90;74.20
59572;DHT22;70118;45.638;11.714;2023-05-29T06:24:41;25.90;74.20
59572;DHT22;70118;45.638;11.714;2023-05-29T06:27:07;25.90;74.20
59572;DHT22;70118;45.638;11.714;2023-05-29T06:29:34;25.90;74.20
59572;DHT22;70118;45.638;11.714;2023-05-29T06:32:00;26.00;74.10
59572;DHT22;70118;45.638;11.714;2023-05-29T06:34:26;26.00;74.20
59572;DHT22;70118;45.638;11.714;2023-05-29T06:36:52;26.00;74.10
59572;DHT22;70118;45.638;11.714;2023-05-29T06:39:18;25.90;74.10
59572;DHT22;70118;45.638;11.714;2023-05-29T06:41:46;26.00;74.10
59572;DHT22;70118;45.638;11.714;2023-05-29T06:44:11;25.90;74.10
59572;DHT22;70118;45.638;11.714;2023-05-29T06:46:37;25.90;74.10
59572;DHT22;70118;45.638;11.714;2023-05-29T06:49:03;25.90;74.20
59572;DHT22;70118;45.638;11.714;2023-05-29T06:51:29;26.00;74.20
59572;DHT22;70118;45.638;11.714;2023-05-29T06:53:56;25.90;74.00
59572;DHT22;70118;45.638;11.714;2023-05-29T06:56:22;25.90;74.00
59572;DHT22;70118;45.638;11.714;2023-05-29T06:58:47;26.00;74.00
59572;DHT22;70118;45.638;11.714;2023-05-29T07:01:13;26.00;73.90
59572;DHT22;70118;45.638;11.714;2023-05-29T07:03:42;25.90;73.80
59572;DHT22;70118;45.638;11.714;2023-05-29T07:06:08;26.00;74.00
59572;DHT22;70118;45.638;11.714;2023-05-29T07:08:34;26.00;73.90
59572;DHT22;70118;45.638;11.714;2023-05-29T07:11:01;26.00;74.00
59572;DHT22;70118;45.638;11.714;2023-05-29T07:13:27;26.00;74.00
59572;DHT22;70118;45.638;11.714;2023-05-29T07:15:53;26.00;74.10
59572;DHT22;70118;45.638;11.714;2023-05-29T07:18:19;26.00;74.00
59572;DHT22;70118;45.638;11.714;2023-05-29T07:20:45;26.00;73.70
59572;DHT22;70118;45.638;11.714;2023-05-29T07:23:10;26.00;73.70
59572;DHT22;70118;45.638;11.714;2023-05-29T07:25:36;26.00;73.80
59572;DHT22;70118;45.638;11.714;2023-05-29T07:28:02;26.00;73.80
59572;DHT22;70118;45.638;11.714;2023-05-29T07:30:28;26.00;73.90
59572;DHT22;70118;45.638;11.714;2023-05-29T07:32:54;26.00;74.10
59572;DHT22;70118;45.638;11.714;2023-05-29T07:35:20;26.00;74.10
59572;DHT22;70118;45.638;11.714;2023-05-29T07:37:45;26.00;74.10
59572;DHT22;70118;45.638;11.714;2023-05-29T07:40:13;26.00;74.10
59572;DHT22;70118;45.638;11.714;2023-05-29T07:42:39;26.00;74.30
59572;DHT22;70118;45.638;11.714;2023-05-29T07:45:05;26.00;74.30
59572;DHT22;70118;45.638;11.714;2023-05-29T07:47:31;26.00;74.30
59572;DHT22;70118;45.638;11.714;2023-05-29T07:49:57;26.10;74.30
59572;DHT22;70118;45.638;11.714;2023-05-29T07:52:23;26.00;74.10
59572;DHT22;70118;45.638;11.714;2023-05-29T07:54:49;26.10;74.20
59572;DHT22;70118;45.638;11.714;2023-05-29T07:57:15;26.00;74.00
59572;DHT22;70118;45.638;11.714;2023-05-29T07:59:41;26.00;73.90
59572;DHT22;70118;45.638;11.714;2023-05-29T08:02:08;26.00;74.00
59572;DHT22;70118;45.638;11.714;2023-05-29T08:04:34;26.10;73.90
59572;DHT22;70118;45.638;11.714;2023-05-29T08:07:02;26.10;73.90
59572;DHT22;70118;45.638;11.714;2023-05-29T08:09:31;26.10;73.80
59572;DHT22;70118;45.638;11.714;2023-05-29T08:11:57;26.10;73.80
59572;DHT22;70118;45.638;11.714;2023-05-29T08:14:25;26.10;73.90
59572;DHT22;70118;45.638;11.714;2023-05-29T08:16:51;26.20;74.00
59572;DHT22;70118;45.638;11.714;2023-05-29T08:19:17;26.20;73.80
59572;DHT22;70118;45.638;11.714;2023-05-29T08:21:43;26.10;73.50
59572;DHT22;70118;45.638;11.714;2023-05-29T08:24:08;26.20;73.40
59572;DHT22;70118;45.638;11.714;2023-05-29T08:26:35;26.10;73.50
59572;DHT22;70118;45.638;11.714;2023-05-29T08:29:01;26.10;73.50
59572;DHT22;70118;45.638;11.714;2023-05-29T08:31:27;26.10;73.30
59572;DHT22;70118;45.638;11.714;2023-05-29T08:33:53;26.10;73.40
59572;DHT22;70118;45.638;11.714;2023-05-29T08:36:19;26.10;73.50
59572;DHT22;70118;45.638;11.714;2023-05-29T08:38:49;26.20;73.80
59572;DHT22;70118;45.638;11.714;2023-05-29T08:41:24;26.20;74.00
59572;DHT22;70118;45.638;11.714;2023-05-29T08:43:52;26.10;74.20
59572;DHT22;70118;45.638;11.714;2023-05-29T08:46:19;26.10;74.00
59572;DHT22;70118;45.638;11.714;2023-05-29T08:48:49;26.10;74.10
59572;DHT22;70118;45.638;11.714;2023-05-29T08:51:20;26.20;74.00
59572;DHT22;70118;45.638;11.714;2023-05-29T08:53:51;26.20;74.20
59572;DHT22;70118;45.638;11.714;2023-05-29T08:56:17;26.20;74.50
59572;DHT22;70118;45.638;11.714;2023-05-29T08:58:44;26.20;74.50
59572;DHT22;70118;45.638;11.714;2023-05-29T09:01:10;26.10;74.10
59572;DHT22;70118;45.638;11.714;2023-05-29T09:03:36;26.20;74.10
59572;DHT22;70118;45.638;11.714;2023-05-29T09:06:04;26.10;74.20
59572;DHT22;70118;45.638;11.714;2023-05-29T09:08:33;26.20;74.30
59572;DHT22;70118;45.638;11.714;2023-05-29T09:10:58;26.20;74.30
59572;DHT22;70118;45.638;11.714;2023-05-29T09:13:24;26.30;74.30
59572;DHT22;70118;45.638;11.714;2023-05-29T09:15:59;26.20;74.30
59572;DHT22;70118;45.638;11.714;2023-05-29T09:18:29;26.20;74.50
59572;DHT22;70118;45.638;11.714;2023-05-29T09:20:57;26.30;74.50
59572;DHT22;70118;45.638;11.714;2023-05-29T09:23:24;26.20;73.80
59572;DHT22;70118;45.638;11.714;2023-05-29T09:25:54;26.20;73.90
59572;DHT22;70118;45.638;11.714;2023-05-29T09:28:23;26.20;74.10
59572;DHT22;70118;45.638;11.714;2023-05-29T09:30:51;26.30;74.00
59572;DHT22;70118;45.638;11.714;2023-05-29T09:33:17;26.20;73.80
59572;DHT22;70118;45.638;11.714;2023-05-29T09:35:49;26.30;73.80
59572;DHT22;70118;45.638;11.714;2023-05-29T09:38:17;26.40;73.90
59572;DHT22;70118;45.638;11.714;2023-05-29T09:40:43;26.30;74.00
59572;DHT22;70118;45.638;11.714;2023-05-29T09:43:16;26.30;73.90
59572;DHT22;70118;45.638;11.714;2023-05-29T09:45:49;26.30;73.80
59572;DHT22;70118;45.638;11.714;2023-05-29T09:48:22;26.30;73.70
59572;DHT22;70118;45.638;11.714;2023-05-29T09:50:49;26.40;74.30
59572;DHT22;70118;45.638;11.714;2023-05-29T09:53:25;26.30;73.30
59572;DHT22;70118;45.638;11.714;2023-05-29T09:55:53;26.30;73.40
59572;DHT22;70118;45.638;11.714;2023-05-29T09:58:20;26.30;73.40
59572;DHT22;70118;45.638;11.714;2023-05-29T10:00:48;26.30;73.40
59572;DHT22;70118;45.638;11.714;2023-05-29T10:03:15;26.30;73.50
59572;DHT22;70118;45.638;11.714;2023-05-29T10:05:44;26.30;73.50
59572;DHT22;70118;45.638;11.714;2023-05-29T10:08:14;26.40;74.20
59572;DHT22;70118;45.638;11.714;2023-05-29T10:10:59;26.40;74.10
59572;DHT22;70118;45.638;11.714;2023-05-29T10:13:36;26.40;73.90
59572;DHT22;70118;45.638;11.714;2023-05-29T10:16:04;26.40;73.30
59572;DHT22;70118;45.638;11.714;2023-05-29T10:18:39;26.40;73.80
59572;DHT22;70118;45.638;11.714;2023-05-29T10:21:07;26.40;73.70
59572;DHT22;70118;45.638;11.714;2023-05-29T10:23:38;26.30;73.10
59572;DHT22;70118;45.638;11.714;2023-05-29T10:26:12;26.40;73.90
59572;DHT22;70118;45.638;11.714;2023-05-29T10:28:44;26.40;73.90
59572;DHT22;70118;45.638;11.714;2023-05-29T10:31:18;26.40;74.00
59572;DHT22;70118;45.638;11.714;2023-05-29T10:36:38;26.40;73.80
59572;DHT22;70118;45.638;11.714;2023-05-29T10:39:06;26.40;73.60
59572;DHT22;70118;45.638;11.714;2023-05-29T10:41:33;26.50;73.60
59572;DHT22;70118;45.638;11.714;2023-05-29T10:49:24;26.40;73.40
59572;DHT22;70118;45.638;11.714;2023-05-29T10:51:52;26.40;73.40
59572;DHT22;70118;45.638;11.714;2023-05-29T10:54:25;26.40;73.70
59572;DHT22;70118;45.638;11.714;2023-05-29T10:56:56;26.50;73.10
59572;DHT22;70118;45.638;11.714;2023-05-29T10:59:23;26.50;73.20
59572;DHT22;70118;45.638;11.714;2023-05-29T11:01:54;26.40;72.90
59572;DHT22;70118;45.638;11.714;2023-05-29T11:06:46;26.40;73.60
59572;DHT22;70118;45.638;11.714;2023-05-29T11:12:14;26.50;73.70
59572;DHT22;70118;45.638;11.714;2023-05-29T11:14:55;26.40;73.40
59572;DHT22;70118;45.638;11.714;2023-05-29T11:17:32;26.40;73.40
59572;DHT22;70118;45.638;11.714;2023-05-29T11:20:03;26.50;73.50
59572;DHT22;70118;45.638;11.714;2023-05-29T11:23:00;26.50;73.70
59572;DHT22;70118;45.638;11.714;2023-05-29T11:25:27;26.40;71.90
59572;DHT22;70118;45.638;11.714;2023-05-29T11:27:54;26.40;72.90
59572;DHT22;70118;45.638;11.714;2023-05-29T11:30:20;26.50;72.90
59572;DHT22;70118;45.638;11.714;2023-05-29T11:32:47;26.40;72.80
59572;DHT22;70118;45.638;11.714;2023-05-29T11:35:14;26.50;72.80
59572;DHT22;70118;45.638;11.714;2023-05-29T11:37:44;26.50;72.70
59572;DHT22;70118;45.638;11.714;2023-05-29T11:40:13;26.50;72.40
59572;DHT22;70118;45.638;11.714;2023-05-29T11:42:43;26.60;72.60
59572;DHT22;70118;45.638;11.714;2023-05-29T11:45:15;26.60;72.60
59572;DHT22;70118;45.638;11.714;2023-05-29T11:48:01;26.50;72.30
59572;DHT22;70118;45.638;11.714;2023-05-29T11:50:28;26.60;72.40
59572;DHT22;70118;45.638;11.714;2023-05-29T11:52:56;26.50;72.40
59572;DHT22;70118;45.638;11.714;2023-05-29T11:55:30;26.70;72.20
59572;DHT22;70118;45.638;11.714;2023-05-29T11:58:00;26.60;72.50
59572;DHT22;70118;45.638;11.714;2023-05-29T12:00:34;26.60;72.20
59572;DHT22;70118;45.638;11.714;2023-05-29T12:03:01;26.60;72.00
59572;DHT22;70118;45.638;11.714;2023-05-29T12:05:31;26.60;72.20
59572;DHT22;70118;45.638;11.714;2023-05-29T12:07:57;26.70;72.20
59572;DHT22;70118;45.638;11.714;2023-05-29T12:10:27;26.70;71.90
59572;DHT22;70118;45.638;11.714;2023-05-29T12:13:00;26.60;70.20
59572;DHT22;70118;45.638;11.714;2023-05-29T12:15:29;26.60;69.90
59572;DHT22;70118;45.638;11.714;2023-05-29T12:17:55;26.60;69.60
59572;DHT22;70118;45.638;11.714;2023-05-29T12:20:25;26.60;70.40
59572;DHT22;70118;45.638;11.714;2023-05-29T12:23:00;26.60;70.90
59572;DHT22;70118;45.638;11.714;2023-05-29T12:25:27;26.60;71.20
59572;DHT22;70118;45.638;11.714;2023-05-29T12:27:56;26.60;71.20
59572;DHT22;70118;45.638;11.714;2023-05-29T12:30:23;26.70;70.70
59572;DHT22;70118;45.638;11.714;2023-05-29T12:32:51;26.60;69.70
59572;DHT22;70118;45.638;11.714;2023-05-29T12:35:25;26.60;70.90
59572;DHT22;70118;45.638;11.714;2023-05-29T12:37:58;26.70;71.10
59572;DHT22;70118;45.638;11.714;2023-05-29T12:40:29;26.60;71.50
59572;DHT22;70118;45.638;11.714;2023-05-29T12:43:00;26.60;71.50
59572;DHT22;70118;45.638;11.714;2023-05-29T12:45:28;26.60;71.40
59572;DHT22;70118;45.638;11.714;2023-05-29T12:47:59;26.70;71.30
59572;DHT22;70118;45.638;11.714;2023-05-29T12:50:33;26.70;71.50
59572;DHT22;70118;45.638;11.714;2023-05-29T12:53:14;26.70;71.60
59572;DHT22;70118;45.638;11.714;2023-05-29T12:55:42;26.70;71.70
59572;DHT22;70118;45.638;11.714;2023-05-29T12:58:12;26.70;71.60
59572;DHT22;70118;45.638;11.714;2023-05-29T13:00:40;26.70;71.80
59572;DHT22;70118;45.638;11.714;2023-05-29T13:03:07;26.60;71.70
59572;DHT22;70118;45.638;11.714;2023-05-29T13:05:34;26.80;71.50
59572;DHT22;70118;45.638;11.714;2023-05-29T13:08:00;26.60;71.70
59572;DHT22;70118;45.638;11.714;2023-05-29T13:10:27;26.70;71.60
59572;DHT22;70118;45.638;11.714;2023-05-29T13:12:54;26.70;71.60
59572;DHT22;70118;45.638;11.714;2023-05-29T13:15:23;26.70;71.40
59572;DHT22;70118;45.638;11.714;2023-05-29T13:17:50;26.70;71.70
59572;DHT22;70118;45.638;11.714;2023-05-29T13:20:17;26.80;71.60
59572;DHT22;70118;45.638;11.714;2023-05-29T13:22:44;26.80;71.90
59572;DHT22;70118;45.638;11.714;2023-05-29T13:25:12;26.80;71.90
59572;DHT22;70118;45.638;11.714;2023-05-29T13:27:42;26.70;71.80
59572;DHT22;70118;45.638;11.714;2023-05-29T13:30:08;26.80;71.90
59572;DHT22;70118;45.638;11.714;2023-05-29T13:32:35;26.80;71.90
59572;DHT22;70118;45.638;11.714;2023-05-29T13:35:02;26.80;71.90
59572;DHT22;70118;45.638;11.714;2023-05-29T13:37:28;26.80;72.00
59572;DHT22;70118;45.638;11.714;2023-05-29T13:39:55;26.80;71.70
59572;DHT22;70118;45.638;11.714;2023-05-29T13:42:21;26.80;71.50
59572;DHT22;70118;45.638;11.714;2023-05-29T13:44:49;26.80;71.80
59572;DHT22;70118;45.638;11.714;2023-05-29T13:47:16;26.80;71.90
59572;DHT22;70118;45.638;11.714;2023-05-29T13:49:42;26.80;71.80
59572;DHT22;70118;45.638;11.714;2023-05-29T13:52:08;26.80;71.80
59572;DHT22;70118;45.638;11.714;2023-05-29T13:54:34;26.80;71.90
59572;DHT22;70118;45.638;11.714;2023-05-29T13:57:05;26.80;71.90
59572;DHT22;70118;45.638;11.714;2023-05-29T13:59:35;26.80;71.60
59572;DHT22;70118;45.638;11.714;2023-05-29T14:02:01;26.70;71.70
59572;DHT22;70118;45.638;11.714;2023-05-29T14:04:31;26.80;71.60
59572;DHT22;70118;45.638;11.714;2023-05-29T14:06:58;26.80;71.70
59572;DHT22;70118;45.638;11.714;2023-05-29T14:09:24;26.80;71.90
59572;DHT22;70118;45.638;11.714;2023-05-29T14:11:59;26.80;71.80
59572;DHT22;70118;45.638;11.714;2023-05-29T14:14:25;26.80;71.70
59572;DHT22;70118;45.638;11.714;2023-05-29T14:16:52;26.80;71.60
59572;DHT22;70118;45.638;11.714;2023-05-29T14:19:18;26.80;71.60
59572;DHT22;70118;45.638;11.714;2023-05-29T14:21:45;26.80;71.80
59572;DHT22;70118;45.638;11.714;2023-05-29T14:24:12;26.70;71.70
59572;DHT22;70118;45.638;11.714;2023-05-29T14:26:38;26.80;71.80
59572;DHT22;70118;45.638;11.714;2023-05-29T14:29:04;26.80;71.60
59572;DHT22;70118;45.638;11.714;2023-05-29T14:31:31;26.80;71.50
59572;DHT22;70118;45.638;11.714;2023-05-29T14:33:57;26.90;71.50
59572;DHT22;70118;45.638;11.714;2023-05-29T14:36:23;26.90;71.40
59572;DHT22;70118;45.638;11.714;2023-05-29T14:38:49;26.80;71.40
59572;DHT22;70118;45.638;11.714;2023-05-29T14:41:15;26.80;71.40
59572;DHT22;70118;45.638;11.714;2023-05-29T14:43:44;26.80;71.40
59572;DHT22;70118;45.638;11.714;2023-05-29T14:46:10;26.80;71.40
59572;DHT22;70118;45.638;11.714;2023-05-29T14:48:36;26.80;71.40
59572;DHT22;70118;45.638;11.714;2023-05-29T14:51:02;26.80;71.70
59572;DHT22;70118;45.638;11.714;2023-05-29T14:53:27;26.80;71.80
59572;DHT22;70118;45.638;11.714;2023-05-29T14:55:53;26.70;71.80
59572;DHT22;70118;45.638;11.714;2023-05-29T14:58:21;26.90;71.80
59572;DHT22;70118;45.638;11.714;2023-05-29T15:00:47;26.80;71.60
59572;DHT22;70118;45.638;11.714;2023-05-29T15:03:13;26.80;71.80
59572;DHT22;70118;45.638;11.714;2023-05-29T15:05:39;26.80;71.70
59572;DHT22;70118;45.638;11.714;2023-05-29T15:08:05;26.90;71.60
59572;DHT22;70118;45.638;11.714;2023-05-29T15:10:31;26.80;71.60
59572;DHT22;70118;45.638;11.714;2023-05-29T15:12:58;26.80;71.60
59572;DHT22;70118;45.638;11.714;2023-05-29T15:15:27;26.80;71.70
59572;DHT22;70118;45.638;11.714;2023-05-29T15:17:54;26.90;71.60
59572;DHT22;70118;45.638;11.714;2023-05-29T15:20:24;26.90;71.50
59572;DHT22;70118;45.638;11.714;2023-05-29T15:22:51;26.90;71.40
59572;DHT22;70118;45.638;11.714;2023-05-29T15:25:19;26.90;71.40
59572;DHT22;70118;45.638;11.714;2023-05-29T15:27:45;26.90;71.20
59572;DHT22;70118;45.638;11.714;2023-05-29T15:30:16;26.90;71.10
59572;DHT22;70118;45.638;11.714;2023-05-29T15:32:43;26.80;71.10
59572;DHT22;70118;45.638;11.714;2023-05-29T15:35:10;26.90;70.80
59572;DHT22;70118;45.638;11.714;2023-05-29T15:37:37;26.90;70.80
59572;DHT22;70118;45.638;11.714;2023-05-29T15:40:03;26.90;70.50
59572;DHT22;70118;45.638;11.714;2023-05-29T15:42:29;26.90;70.40